createdAt,value
2022-09-03T00:00:12.518Z,16.90
2022-09-03T00:03:24.538Z,17.00
2022-09-03T00:06:38.698Z,17.00
2022-09-03T00:09:50.642Z,17.00
2022-09-03T00:13:02.776Z,17.10
2022-09-03T00:16:14.058Z,17.10
2022-09-03T00:19:26.233Z,17.10
2022-09-03T00:22:39.783Z,17.10
2022-09-03T00:25:55.323Z,17.00
2022-09-03T00:29:08.810Z,17.00
2022-09-03T00:32:21.499Z,17.00
2022-09-03T00:35:32.536Z,17.00
2022-09-03T00:38:40.991Z,16.90
2022-09-03T00:42:09.205Z,16.90
2022-09-03T00:45:31.061Z,16.90
2022-09-03T00:48:57.426Z,16.90
2022-09-03T00:52:12.660Z,16.80
2022-09-03T00:55:32.871Z,16.80
2022-09-03T00:58:57.279Z,16.80
2022-09-03T01:02:14.445Z,16.80
2022-09-03T01:05:50.498Z,16.70
2022-09-03T01:09:12.136Z,16.80
2022-09-03T01:12:35.084Z,16.70
2022-09-03T01:15:47.939Z,16.60
2022-09-03T01:19:06.627Z,16.70
2022-09-03T01:22:42.403Z,16.60
2022-09-03T01:25:57.246Z,16.60
2022-09-03T01:29:20.327Z,16.60
2022-09-03T01:32:36.903Z,16.60
2022-09-03T01:35:48.894Z,16.60
2022-09-03T01:39:01.510Z,16.60
2022-09-03T01:42:23.687Z,16.50
2022-09-03T01:45:52.796Z,16.50
2022-09-03T01:49:07.390Z,16.50
2022-09-03T01:52:20.132Z,16.50
2022-09-03T01:55:34.623Z,16.50
2022-09-03T01:58:45.775Z,16.50
2022-09-03T02:02:00.126Z,16.50
2022-09-03T02:05:12.226Z,16.50
2022-09-03T02:08:18.687Z,16.50
2022-09-03T02:11:25.048Z,16.50
2022-09-03T02:14:32.484Z,16.60
2022-09-03T02:17:41.752Z,16.60
2022-09-03T02:20:49.835Z,16.60
2022-09-03T02:23:56.401Z,16.60
2022-09-03T02:27:02.742Z,16.60
2022-09-03T02:30:11.046Z,16.60
2022-09-03T02:33:18.883Z,16.60
2022-09-03T02:36:30.872Z,16.60
2022-09-03T02:39:39.495Z,16.60
2022-09-03T02:42:47.982Z,16.60
2022-09-03T02:45:59.808Z,16.60
2022-09-03T02:49:07.903Z,16.50
2022-09-03T02:52:14.355Z,16.50
2022-09-03T02:55:21.447Z,16.50
2022-09-03T02:58:28.990Z,16.60
2022-09-03T03:01:36.634Z,16.60
2022-09-03T03:04:44.839Z,16.60
2022-09-03T03:07:51.558Z,16.70
2022-09-03T03:11:00.104Z,16.70
2022-09-03T03:14:06.917Z,16.70
2022-09-03T03:17:13.469Z,16.70
2022-09-03T03:20:21.299Z,16.80
2022-09-03T03:23:27.963Z,16.80
2022-09-03T03:26:34.582Z,16.80
2022-09-03T03:29:41.125Z,16.80
2022-09-03T03:32:47.409Z,16.70
2022-09-03T03:35:55.398Z,16.70
2022-09-03T03:39:03.047Z,16.60
2022-09-03T03:42:09.710Z,16.60
2022-09-03T03:45:16.553Z,16.50
2022-09-03T03:48:23.250Z,16.50
2022-09-03T03:51:32.902Z,16.50
2022-09-03T03:54:39.559Z,16.40
2022-09-03T03:57:46.054Z,16.30
2022-09-03T04:00:53.185Z,16.30
2022-09-03T04:04:01.075Z,16.30
2022-09-03T04:07:09.837Z,16.30
2022-09-03T04:10:16.592Z,16.20
2022-09-03T04:13:23.363Z,16.30
2022-09-03T04:16:30.208Z,16.30
2022-09-03T04:19:36.609Z,16.30
2022-09-03T04:22:44.426Z,16.20
2022-09-03T04:25:54.000Z,16.20
2022-09-03T04:29:02.370Z,16.10
2022-09-03T04:32:26.493Z,16.00
2022-09-03T04:35:34.179Z,16.00
2022-09-03T04:38:47.660Z,15.90
2022-09-03T04:41:53.890Z,15.90
2022-09-03T04:45:00.298Z,15.90
2022-09-03T04:48:10.370Z,15.90
2022-09-03T04:51:19.599Z,15.80
2022-09-03T04:54:29.251Z,15.80
2022-09-03T04:57:37.894Z,15.70
2022-09-03T05:00:44.243Z,15.70
2022-09-03T05:03:52.272Z,15.50
2022-09-03T05:06:58.906Z,15.50
2022-09-03T05:10:08.755Z,15.50
2022-09-03T05:13:15.038Z,15.50
2022-09-03T05:16:24.524Z,15.50
2022-09-03T05:19:31.727Z,15.50
2022-09-03T05:22:38.502Z,15.50
2022-09-03T05:25:58.344Z,15.50
2022-09-03T05:29:07.995Z,15.50
2022-09-03T05:32:16.403Z,15.50
2022-09-03T05:35:26.078Z,15.60
2022-09-03T05:38:36.770Z,15.60
2022-09-03T05:41:44.718Z,15.70
2022-09-03T05:44:51.417Z,15.90
2022-09-03T05:48:01.686Z,16.00
2022-09-03T05:51:10.166Z,16.20
2022-09-03T05:54:16.193Z,16.40
2022-09-03T05:57:23.650Z,16.50
2022-09-03T06:00:30.138Z,16.80
2022-09-03T06:03:37.396Z,16.90
2022-09-03T06:06:47.285Z,17.00
2022-09-03T06:09:54.619Z,17.00
2022-09-03T06:13:03.766Z,17.10
2022-09-03T06:16:10.258Z,17.20
2022-09-03T06:19:17.349Z,17.20
2022-09-03T06:22:25.507Z,17.20
2022-09-03T06:25:33.603Z,17.30
2022-09-03T06:28:44.406Z,17.30
2022-09-03T06:31:50.908Z,17.40
2022-09-03T06:34:57.369Z,17.50
2022-09-03T06:38:03.654Z,17.50
2022-09-03T06:41:13.201Z,17.60
2022-09-03T06:44:20.906Z,17.60
2022-09-03T06:47:27.526Z,17.70
2022-09-03T06:50:34.778Z,17.70
2022-09-03T06:53:43.857Z,17.80
2022-09-03T06:56:50.455Z,17.80
2022-09-03T06:59:58.094Z,17.90
2022-09-03T07:03:05.635Z,18.00
2022-09-03T07:06:15.107Z,18.10
2022-09-03T07:09:21.807Z,18.20
2022-09-03T07:12:28.354Z,18.20
2022-09-03T07:15:36.697Z,18.30
2022-09-03T07:18:44.145Z,18.40
2022-09-03T07:21:51.041Z,18.50
2022-09-03T07:24:57.336Z,18.60
2022-09-03T07:28:06.836Z,18.70
2022-09-03T07:31:19.141Z,18.70
2022-09-03T07:34:27.067Z,18.80
2022-09-03T07:37:33.997Z,18.90
2022-09-03T07:40:40.363Z,19.00
2022-09-03T07:43:48.265Z,19.00
2022-09-03T07:46:56.384Z,19.20
2022-09-03T07:50:03.817Z,19.30
2022-09-03T07:53:10.382Z,19.50
2022-09-03T07:56:17.169Z,19.60
2022-09-03T07:59:23.939Z,19.90
2022-09-03T08:02:32.070Z,20.10
2022-09-03T08:05:38.913Z,20.20
2022-09-03T08:08:46.094Z,20.50
2022-09-03T08:11:52.546Z,20.70
2022-09-03T08:14:59.376Z,20.90
2022-09-03T08:18:07.538Z,21.10
2022-09-03T08:21:17.802Z,21.30
2022-09-03T08:24:26.335Z,21.70
2022-09-03T08:27:33.567Z,22.00
2022-09-03T08:30:41.781Z,22.30
2022-09-03T08:33:52.078Z,22.70
2022-09-03T08:37:01.390Z,22.80
2022-09-03T08:40:08.862Z,22.90
2022-09-03T08:43:18.919Z,23.10
2022-09-03T08:46:35.642Z,23.20
2022-09-03T08:49:49.646Z,23.40
2022-09-03T08:53:01.909Z,23.50
2022-09-03T08:56:12.471Z,23.60
2022-09-03T08:59:18.929Z,23.60
2022-09-03T09:02:40.596Z,23.60
2022-09-03T09:05:55.580Z,23.60
2022-09-03T09:09:17.987Z,23.60
2022-09-03T09:12:42.753Z,23.50
2022-09-03T09:16:04.095Z,23.60
2022-09-03T09:19:29.771Z,23.70
2022-09-03T09:22:43.771Z,23.80
2022-09-03T09:25:57.549Z,23.80
2022-09-03T09:29:10.255Z,23.80
2022-09-03T09:32:19.352Z,23.90
2022-09-03T09:35:28.757Z,24.10
2022-09-03T09:38:39.344Z,24.10
2022-09-03T09:41:59.525Z,24.20
2022-09-03T09:45:12.108Z,24.10
2022-09-03T09:48:26.371Z,24.30
2022-09-03T09:51:33.475Z,24.30
2022-09-03T09:54:43.663Z,24.50
2022-09-03T09:57:54.454Z,24.80
2022-09-03T10:01:13.135Z,25.00
2022-09-03T10:04:28.771Z,25.20
2022-09-03T10:07:37.303Z,25.20
2022-09-03T10:10:50.081Z,25.50
2022-09-03T10:13:57.423Z,25.70
2022-09-03T10:17:11.690Z,26.00
2022-09-03T10:20:31.433Z,26.10
2022-09-03T10:23:53.673Z,26.20
2022-09-03T10:27:01.686Z,26.40
2022-09-03T10:30:10.145Z,26.50
2022-09-03T10:33:24.279Z,26.60
2022-09-03T10:36:38.871Z,26.70
2022-09-03T10:40:06.881Z,26.60
2022-09-03T10:43:41.777Z,26.80
2022-09-03T10:47:05.713Z,26.70
2022-09-03T10:50:17.396Z,27.00
2022-09-03T10:53:44.256Z,26.90
2022-09-03T10:56:59.010Z,26.90
2022-09-03T11:00:12.672Z,27.20
2022-09-03T11:03:45.643Z,27.50
2022-09-03T11:06:56.469Z,27.50
2022-09-03T11:10:15.122Z,27.90
2022-09-03T11:13:28.604Z,28.10
2022-09-03T11:16:42.682Z,28.20
2022-09-03T11:19:55.567Z,28.00
2022-09-03T11:23:05.918Z,27.80
2022-09-03T11:26:16.635Z,27.60
2022-09-03T11:29:32.515Z,27.70
2022-09-03T11:32:54.250Z,27.70
2022-09-03T11:36:03.301Z,28.60
2022-09-03T11:39:23.340Z,28.90
2022-09-03T11:42:35.201Z,28.70
2022-09-03T11:45:42.158Z,28.30
2022-09-03T11:48:51.654Z,28.80
2022-09-03T11:52:02.295Z,29.60
2022-09-03T11:55:09.490Z,30.20
2022-09-03T11:58:26.495Z,30.50
2022-09-03T12:01:35.416Z,30.20
2022-09-03T12:04:51.244Z,30.00
2022-09-03T12:08:43.621Z,29.90
2022-09-03T12:12:02.460Z,29.50
2022-09-03T12:15:26.938Z,29.40
2022-09-03T12:18:36.619Z,30.70
2022-09-03T12:21:44.437Z,32.80
2022-09-03T12:24:51.699Z,34.10
2022-09-03T12:27:59.830Z,34.00
2022-09-03T12:31:21.460Z,32.80
2022-09-03T12:34:28.911Z,31.60
2022-09-03T12:41:26.582Z,29.20
2022-09-03T12:44:41.134Z,28.50
2022-09-03T12:47:47.508Z,27.90
2022-09-03T12:54:31.689Z,28.30
2022-09-03T12:57:48.545Z,30.10
2022-09-03T13:01:02.237Z,30.60
2022-09-03T13:04:14.073Z,30.00
2022-09-03T13:07:29.629Z,29.30
2022-09-03T13:10:41.972Z,29.00
2022-09-03T13:13:58.318Z,28.90
2022-09-03T13:21:20.098Z,28.70
2022-09-03T13:24:48.787Z,29.70
2022-09-03T13:28:09.293Z,30.10
2022-09-03T13:31:30.286Z,29.90
2022-09-03T13:34:41.319Z,29.20
2022-09-03T13:37:54.411Z,28.50
2022-09-03T13:41:08.303Z,27.80
2022-09-03T13:44:23.949Z,27.30
2022-09-03T13:48:00.676Z,26.80
2022-09-03T13:51:15.772Z,26.50
2022-09-03T13:54:48.250Z,26.00
2022-09-03T13:58:02.055Z,25.40
2022-09-03T14:01:20.180Z,24.60
2022-09-03T14:04:40.093Z,24.00
2022-09-03T14:07:59.391Z,23.50
2022-09-03T14:11:23.233Z,23.20
2022-09-03T14:14:42.642Z,22.80
2022-09-03T14:17:58.802Z,22.50
2022-09-03T14:21:12.444Z,22.30
2022-09-03T14:24:25.789Z,22.30
2022-09-03T14:27:34.832Z,22.40
2022-09-03T14:30:54.881Z,22.60
2022-09-03T14:34:14.907Z,23.00
2022-09-03T14:37:40.640Z,23.30
2022-09-03T14:40:51.303Z,23.50
2022-09-03T14:44:37.642Z,23.70
2022-09-03T14:48:05.911Z,24.00
2022-09-03T14:51:32.675Z,24.80
2022-09-03T14:54:51.895Z,25.70
2022-09-03T14:58:28.283Z,26.40
2022-09-03T15:01:38.834Z,27.20
2022-09-03T15:05:02.269Z,27.30
2022-09-03T15:08:21.926Z,27.60
2022-09-03T15:11:35.244Z,27.70
2022-09-03T15:14:51.380Z,27.60
2022-09-03T15:18:14.717Z,27.80
2022-09-03T15:21:37.773Z,28.40
2022-09-03T15:24:54.890Z,28.90
2022-09-03T15:28:11.727Z,29.30
2022-09-03T15:31:23.962Z,29.30
2022-09-03T15:35:09.086Z,28.70
2022-09-03T15:38:30.078Z,28.00
2022-09-03T15:41:45.767Z,27.40
2022-09-03T15:44:55.559Z,27.10
2022-09-03T15:48:13.399Z,27.00
2022-09-03T15:51:24.446Z,27.10
2022-09-03T15:54:43.472Z,27.20
2022-09-03T15:58:04.991Z,27.20
2022-09-03T16:01:24.759Z,27.00
2022-09-03T16:04:56.911Z,26.90
2022-09-03T16:08:14.577Z,26.80
2022-09-03T16:11:37.227Z,26.80
2022-09-03T16:14:49.996Z,26.90
2022-09-03T16:18:02.615Z,27.00
2022-09-03T16:21:16.211Z,26.80
2022-09-03T16:24:28.804Z,26.40
2022-09-03T16:27:39.617Z,26.00
2022-09-03T16:31:04.031Z,25.70
2022-09-03T16:34:21.882Z,25.40
2022-09-03T16:37:36.354Z,25.10
2022-09-03T16:40:50.166Z,24.80
2022-09-03T16:44:06.038Z,24.60
2022-09-03T16:47:26.602Z,24.40
2022-09-03T16:50:53.157Z,24.20
2022-09-03T16:54:18.546Z,24.00
2022-09-03T16:57:45.901Z,23.90
2022-09-03T17:01:10.109Z,23.80
2022-09-03T17:04:59.287Z,23.70
2022-09-03T17:08:19.710Z,23.60
2022-09-03T17:11:52.825Z,23.60
2022-09-03T17:15:14.631Z,23.60
2022-09-03T17:18:46.883Z,23.60
2022-09-03T17:22:10.720Z,23.40
2022-09-03T17:25:30.447Z,23.30
2022-09-03T17:28:57.823Z,23.00
2022-09-03T17:32:22.511Z,22.70
2022-09-03T17:35:39.511Z,22.50
2022-09-03T17:39:32.886Z,22.30
2022-09-03T17:42:53.027Z,22.20
2022-09-03T17:46:17.440Z,22.10
2022-09-03T17:49:28.254Z,22.00
2022-09-03T17:52:43.842Z,21.90
2022-09-03T17:55:58.882Z,21.80
2022-09-03T17:59:15.760Z,21.70
2022-09-03T18:02:38.810Z,21.60
2022-09-03T18:05:49.682Z,21.60
2022-09-03T18:09:02.873Z,21.50
2022-09-03T18:12:19.520Z,21.40
2022-09-03T18:15:31.103Z,21.30
2022-09-03T18:18:46.290Z,21.20
2022-09-03T18:22:10.743Z,21.10
2022-09-03T18:25:36.058Z,21.00
2022-09-03T18:29:08.011Z,21.00
2022-09-03T18:32:31.924Z,20.90
2022-09-03T18:35:56.266Z,20.90
2022-09-03T18:39:32.634Z,20.90
2022-09-03T18:43:09.958Z,20.80
2022-09-03T18:48:01.011Z,20.80
2022-09-03T18:50:36.245Z,20.70
2022-09-03T18:54:15.698Z,20.70
2022-09-03T18:57:43.989Z,20.60
2022-09-03T19:01:24.313Z,20.60
2022-09-03T19:05:07.139Z,20.50
2022-09-03T19:08:39.529Z,20.50
2022-09-03T19:12:20.048Z,20.50
2022-09-03T19:15:48.214Z,20.40
2022-09-03T19:19:36.076Z,20.40
2022-09-03T19:23:01.854Z,20.40
2022-09-03T19:26:38.335Z,20.40
2022-09-03T19:30:21.091Z,20.40
2022-09-03T19:33:53.550Z,20.40
2022-09-03T19:37:25.714Z,20.40
2022-09-03T19:41:15.372Z,20.30
2022-09-03T19:44:57.903Z,20.20
2022-09-03T19:48:35.691Z,20.10
2022-09-03T19:52:08.959Z,20.10
2022-09-03T19:55:39.691Z,20.00
2022-09-03T19:59:11.165Z,20.00
2022-09-03T20:02:34.999Z,20.00
2022-09-03T20:05:59.690Z,20.00
2022-09-03T20:09:28.108Z,20.00
2022-09-03T20:12:38.982Z,19.90
2022-09-03T20:15:57.367Z,19.90
2022-09-03T20:19:11.439Z,20.00
2022-09-03T20:22:29.850Z,20.00
2022-09-03T20:25:53.006Z,19.90
2022-09-03T20:29:33.506Z,19.90
2022-09-03T20:33:03.677Z,19.90
2022-09-03T20:36:24.901Z,19.90
2022-09-03T20:40:04.713Z,19.90
2022-09-03T20:43:51.404Z,19.90
2022-09-03T20:47:21.274Z,19.90
2022-09-03T20:50:46.587Z,19.90
2022-09-03T20:54:12.213Z,19.80
2022-09-03T20:57:30.893Z,19.90
2022-09-03T21:00:49.189Z,19.90
2022-09-03T21:04:10.955Z,19.90
2022-09-03T21:07:28.307Z,19.90
2022-09-03T21:10:42.019Z,19.80
2022-09-03T21:13:56.640Z,19.80
2022-09-03T21:17:19.874Z,19.80
2022-09-03T21:20:35.066Z,19.80
2022-09-03T21:23:45.436Z,19.80
2022-09-03T21:26:57.075Z,19.80
2022-09-03T21:30:08.916Z,19.80
2022-09-03T21:33:21.430Z,19.80
2022-09-03T21:36:34.303Z,19.80
2022-09-03T21:39:48.112Z,19.80
2022-09-03T21:43:00.389Z,19.70
2022-09-03T21:46:15.255Z,19.70
2022-09-03T21:49:29.314Z,19.70
2022-09-03T21:52:43.908Z,19.60
2022-09-03T21:56:15.378Z,19.60
2022-09-03T22:00:17.645Z,19.60
2022-09-03T22:03:24.016Z,19.60
2022-09-03T22:06:40.179Z,19.60
2022-09-03T22:09:53.066Z,19.50
2022-09-03T22:13:17.078Z,19.50
2022-09-03T22:16:30.242Z,19.50
2022-09-03T22:19:37.615Z,19.40
2022-09-03T22:22:56.430Z,19.40
2022-09-03T22:26:11.982Z,19.30
2022-09-03T22:29:34.991Z,19.30
2022-09-03T22:32:59.739Z,19.20
2022-09-03T22:36:14.470Z,19.10
2022-09-03T22:39:36.615Z,19.00
2022-09-03T22:43:02.843Z,18.90
2022-09-03T22:46:14.892Z,18.90
2022-09-03T22:49:36.455Z,18.80
2022-09-03T22:52:49.317Z,18.70
2022-09-03T22:56:05.904Z,18.70
2022-09-03T22:59:20.213Z,18.60
2022-09-03T23:02:31.750Z,18.60
2022-09-03T23:05:46.311Z,18.60
2022-09-03T23:09:01.346Z,18.50
2022-09-03T23:12:13.851Z,18.40
2022-09-03T23:15:30.444Z,18.30
2022-09-03T23:18:44.438Z,18.30
2022-09-03T23:21:58.447Z,18.30
2022-09-03T23:25:11.558Z,18.20
2022-09-03T23:28:24.866Z,18.20
2022-09-03T23:31:31.477Z,18.10
2022-09-03T23:34:40.660Z,18.10
2022-09-03T23:38:02.219Z,18.10
2022-09-03T23:41:16.948Z,18.00
2022-09-03T23:44:45.670Z,18.00
2022-09-03T23:48:01.367Z,17.90
2022-09-03T23:51:17.133Z,17.80
2022-09-03T23:54:34.907Z,17.80
2022-09-03T23:57:44.550Z,17.70
